Time;durP1;ratioP1;P1;durP2;ratioP2;P2;SDS_P1;SDS_P2;PMS_P1;PMS_P2;Temp;Humidity;BMP_temperature;BMP_pressure;BME280_temperature;BME280_humidity;BME280_pressure;Samples;Min_cycle;Max_cycle;Signal;HPM_P1;HPM_P2
2022/10/07 04:47:35;;;;;;;19.73;18.20;;;14.50;99.90;;;;;;5453922;23;20491;-73
2022/10/07 04:53:14;;;;;;;19.77;18.27;;;14.40;99.90;;;;;;5918907;23;20472;-72
2022/10/07 04:55:42;;;;;;;18.90;17.80;;;14.40;99.90;;;;;;4971472;28;20479;-71
2022/10/07 04:58:09;;;;;;;18.90;17.80;;;14.30;99.90;;;;;;4973388;28;20455;-72
2022/10/07 05:00:41;;;;;;;19.20;17.97;;;14.40;99.90;;;;;;4973337;28;20976;-71
2022/10/07 05:03:10;;;;;;;21.07;19.60;;;14.50;99.90;;;;;;4973463;28;20534;-73
2022/10/07 05:05:40;;;;;;;20.57;19.03;;;14.60;99.90;;;;;;4973257;28;20451;-74
2022/10/07 05:08:07;;;;;;;20.07;18.40;;;14.50;99.90;;;;;;4973222;28;20456;-72
2022/10/07 05:10:36;;;;;;;20.60;19.40;;;14.40;99.90;;;;;;4973129;28;20494;-72
2022/10/07 05:13:03;;;;;;;20.90;18.70;;;14.50;99.90;;;;;;4973311;28;20448;-72
2022/10/07 05:15:30;;;;;;;20.27;19.13;;;14.50;99.90;;;;;;4976490;28;20475;-72
2022/10/07 05:17:57;;;;;;;19.70;18.60;;;14.60;99.90;;;;;;4992744;28;20450;-72
2022/10/07 05:20:25;;;;;;;19.97;18.43;;;14.60;99.90;;;;;;4992724;28;20450;-72
2022/10/07 05:22:52;;;;;;;20.00;18.73;;;14.60;99.90;;;;;;4992582;28;20453;-72
2022/10/07 05:25:19;;;;;;;20.97;18.97;;;14.60;99.90;;;;;;4992620;28;20462;-72
2022/10/07 05:27:50;;;;;;;18.13;17.13;;;14.60;99.90;;;;;;4992408;28;20986;-72
2022/10/07 05:30:17;;;;;;;19.87;18.37;;;14.60;99.90;;;;;;4992260;28;21194;-72
2022/10/07 05:32:44;;;;;;;20.13;18.60;;;14.70;99.90;;;;;;4992052;28;20459;-72
2022/10/07 05:35:11;;;;;;;19.93;18.20;;;14.70;99.90;;;;;;4992267;28;20455;-72
2022/10/07 05:37:39;;;;;;;19.57;18.27;;;14.80;99.90;;;;;;4992102;28;20461;-72
2022/10/07 05:40:06;;;;;;;20.13;18.57;;;14.80;99.90;;;;;;4977085;28;20459;-74
2022/10/07 05:42:45;;;;;;;21.17;19.40;;;14.80;99.90;;;;;;4971805;28;20466;-72
2022/10/07 05:45:12;;;;;;;21.83;20.07;;;14.90;99.90;;;;;;4969634;28;20451;-74
2022/10/07 05:47:39;;;;;;;22.00;19.83;;;15.00;99.90;;;;;;4970317;28;20456;-73
2022/10/07 05:50:07;;;;;;;19.57;18.40;;;15.10;99.90;;;;;;4969400;28;20494;-74
2022/10/07 05:52:34;;;;;;;21.80;19.70;;;15.20;99.90;;;;;;4970526;28;20475;-73
2022/10/07 05:55:02;;;;;;;20.87;19.30;;;15.00;99.90;;;;;;4971407;28;20503;-73
2022/10/07 05:57:29;;;;;;;20.27;18.80;;;15.00;99.90;;;;;;4972650;28;20458;-73
2022/10/07 05:59:57;;;;;;;23.50;21.57;;;15.10;99.90;;;;;;4971322;28;20452;-73
2022/10/07 06:02:24;;;;;;;32.70;29.60;;;15.10;99.90;;;;;;4971393;28;20582;-73
2022/10/07 06:04:51;;;;;;;29.87;27.37;;;15.20;99.90;;;;;;4971110;28;20452;-72
2022/10/07 06:07:18;;;;;;;26.37;24.07;;;15.10;99.90;;;;;;4971587;28;20462;-72
2022/10/07 06:15:15;;;;;;;24.23;21.80;;;15.20;99.90;;;;;;4971348;28;20431;-72
2022/10/07 06:17:43;;;;;;;25.40;23.00;;;15.10;99.90;;;;;;4971059;28;20456;-72
2022/10/07 06:20:10;;;;;;;27.57;25.50;;;15.20;99.90;;;;;;4970907;28;20514;-75
2022/10/07 06:22:37;;;;;;;29.57;26.77;;;15.30;99.90;;;;;;4970428;28;20452;-72
2022/10/07 06:25:04;;;;;;;24.17;22.10;;;15.60;99.90;;;;;;4971176;28;20456;-73
2022/10/07 06:27:33;;;;;;;27.27;24.70;;;16.00;99.90;;;;;;4971293;28;20450;-73
2022/10/07 06:30:00;;;;;;;30.90;28.00;;;16.30;99.90;;;;;;4971029;28;20502;-73
2022/10/07 06:32:29;;;;;;;24.20;21.67;;;16.50;99.90;;;;;;4970856;28;20482;-73
2022/10/07 06:34:55;;;;;;;25.27;22.30;;;16.90;99.90;;;;;;4970813;28;20942;-72
2022/10/07 06:37:22;;;;;;;20.80;19.23;;;17.30;99.90;;;;;;4970802;28;20448;-72
2022/10/07 06:39:49;;;;;;;20.50;18.60;;;17.50;99.90;;;;;;4970946;28;20451;-72
2022/10/07 06:42:16;;;;;;;18.10;16.90;;;17.70;99.90;;;;;;4955697;28;20456;-72
2022/10/07 06:44:44;;;;;;;19.53;18.00;;;17.90;99.90;;;;;;4951407;29;20462;-73
2022/10/07 06:47:11;;;;;;;17.67;16.13;;;18.30;99.90;;;;;;4951348;29;20567;-73
2022/10/07 06:49:37;;;;;;;17.27;15.63;;;18.70;99.90;;;;;;4951046;29;20499;-72
2022/10/07 06:52:04;;;;;;;15.93;14.70;;;18.70;99.90;;;;;;4951375;29;20540;-72
2022/10/07 06:54:31;;;;;;;17.20;16.07;;;18.60;99.90;;;;;;4951450;29;20476;-72
2022/10/07 06:56:58;;;;;;;18.20;16.70;;;18.80;99.90;;;;;;4951253;29;20460;-72
2022/10/07 06:59:24;;;;;;;18.50;16.80;;;18.80;99.90;;;;;;4951189;29;20448;-72
2022/10/07 07:01:52;;;;;;;18.90;17.37;;;18.60;99.90;;;;;;4951273;29;20444;-72
2022/10/07 07:04:19;;;;;;;20.33;18.33;;;18.70;99.90;;;;;;4951266;29;20459;-73
2022/10/07 07:06:46;;;;;;;19.63;17.77;;;18.90;99.90;;;;;;4951480;29;20449;-72
2022/10/07 07:09:12;;;;;;;18.00;16.40;;;19.00;99.90;;;;;;4950976;29;20453;-72
2022/10/07 07:11:42;;;;;;;16.83;15.63;;;18.80;99.90;;;;;;4950884;29;20448;-72
2022/10/07 07:14:11;;;;;;;17.30;16.17;;;18.90;99.90;;;;;;4950789;29;20544;-72
2022/10/07 07:16:38;;;;;;;17.93;16.40;;;19.30;99.90;;;;;;4950733;29;20461;-72
2022/10/07 07:19:07;;;;;;;15.20;14.40;;;19.60;99.90;;;;;;4950620;29;20463;-74
2022/10/07 07:21:37;;;;;;;17.10;16.00;;;19.60;99.90;;;;;;4950889;29;20647;-74
2022/10/07 07:24:04;;;;;;;17.53;16.33;;;19.70;99.90;;;;;;4951022;29;20460;-73
2022/10/07 07:26:31;;;;;;;18.17;16.90;;;20.20;99.90;;;;;;4950779;29;20528;-73
2022/10/07 07:29:01;;;;;;;15.53;14.67;;;20.40;99.90;;;;;;4950536;29;20461;-73
2022/10/07 07:31:29;;;;;;;15.73;14.57;;;20.30;99.90;;;;;;4950556;29;20504;-74
2022/10/07 07:33:56;;;;;;;17.33;15.90;;;20.20;99.90;;;;;;4950682;28;20460;-74
2022/10/07 07:36:26;;;;;;;16.90;15.50;;;20.50;99.90;;;;;;4954565;29;20456;-73
2022/10/07 07:38:53;;;;;;;17.00;16.00;;;20.70;99.90;;;;;;4954430;29;20459;-74
2022/10/07 07:41:21;;;;;;;17.10;15.53;;;20.90;99.90;;;;;;4962357;28;20448;-74
2022/10/07 07:43:50;;;;;;;18.23;16.83;;;20.90;99.90;;;;;;4974130;28;20949;-74
2022/10/07 07:46:18;;;;;;;18.40;16.70;;;21.10;99.90;;;;;;4974092;28;20538;-73
2022/10/07 07:48:45;;;;;;;16.90;15.73;;;21.30;99.90;;;;;;4973826;28;20447;-73
2022/10/07 07:51:14;;;;;;;16.90;16.00;;;21.80;99.90;;;;;;4973490;28;20832;-72
2022/10/07 07:53:43;;;;;;;18.13;16.63;;;21.90;99.90;;;;;;4973462;28;20491;-74
2022/10/07 07:56:10;;;;;;;18.40;17.00;;;22.10;99.90;;;;;;4973580;28;20757;-73
2022/10/07 07:58:37;;;;;;;15.97;14.97;;;22.40;99.90;;;;;;4973634;28;20459;-74
2022/10/07 08:01:06;;;;;;;16.67;15.57;;;21.90;99.90;;;;;;4974348;28;20447;-73
2022/10/07 08:03:36;;;;;;;17.07;15.40;;;21.90;99.90;;;;;;4974620;28;20455;-74
2022/10/07 08:06:03;;;;;;;17.20;15.80;;;22.30;99.90;;;;;;4974055;28;20459;-74
2022/10/07 08:08:30;;;;;;;15.63;14.37;;;22.40;99.90;;;;;;4973864;28;20455;-73
2022/10/07 08:11:06;;;;;;;16.30;15.20;;;22.70;99.90;;;;;;4973035;28;20498;-73
2022/10/07 08:13:34;;;;;;;18.00;16.60;;;22.80;99.90;;;;;;4973560;28;20466;-73
2022/10/07 08:16:02;;;;;;;16.80;15.40;;;22.70;99.90;;;;;;4973955;28;20937;-73
2022/10/07 08:18:29;;;;;;;15.70;15.00;;;22.50;99.90;;;;;;4973739;28;20462;-74
2022/10/07 08:20:57;;;;;;;16.30;15.37;;;22.60;99.90;;;;;;4973373;28;20474;-74
2022/10/07 08:23:25;;;;;;;16.40;15.30;;;22.80;99.90;;;;;;4973143;28;20514;-74
2022/10/07 08:25:54;;;;;;;15.57;14.57;;;22.40;99.90;;;;;;4973247;28;20904;-72
2022/10/07 08:28:22;;;;;;;16.13;14.93;;;22.50;99.90;;;;;;4973197;28;20455;-74
2022/10/07 08:30:49;;;;;;;15.47;14.50;;;22.80;99.90;;;;;;4973138;28;20839;-73
2022/10/07 08:33:16;;;;;;;14.20;13.40;;;22.80;99.90;;;;;;4973569;28;20554;-74
2022/10/07 08:35:43;;;;;;;16.47;15.67;;;22.80;99.90;;;;;;4973218;28;20463;-74
2022/10/07 08:38:11;;;;;;;16.43;15.20;;;23.20;99.30;;;;;;4973226;28;20467;-74
2022/10/07 08:40:46;;;;;;;16.07;15.17;;;23.40;99.10;;;;;;4970636;28;20452;-74
2022/10/07 08:43:13;;;;;;;15.40;14.30;;;23.30;98.60;;;;;;4953472;29;20459;-74
2022/10/07 08:45:42;;;;;;;15.23;14.20;;;23.50;98.60;;;;;;4952760;28;20476;-74
2022/10/07 08:48:16;;;;;;;14.73;13.77;;;23.90;97.70;;;;;;4953528;29;20460;-73
2022/10/07 08:50:55;;;;;;;14.37;13.37;;;23.80;97.50;;;;;;4953433;29;20584;-73
2022/10/07 08:53:29;;;;;;;15.67;14.77;;;23.80;98.10;;;;;;4952934;29;20476;-74
2022/10/07 08:56:01;;;;;;;14.47;13.57;;;24.10;97.10;;;;;;4953101;29;20460;-74
2022/10/07 08:58:42;;;;;;;15.17;14.00;;;23.90;97.40;;;;;;4953531;29;20459;-75
2022/10/07 09:01:22;;;;;;;16.17;15.17;;;24.60;96.70;;;;;;4953345;29;20972;-74
2022/10/07 09:03:56;;;;;;;16.53;15.20;;;24.80;95.00;;;;;;4953497;29;21008;-75
2022/10/07 09:06:28;;;;;;;13.60;12.70;;;24.60;95.50;;;;;;4952986;29;20483;-75
2022/10/07 09:09:01;;;;;;;14.20;13.50;;;24.60;94.70;;;;;;4952704;29;20453;-75
2022/10/07 09:11:30;;;;;;;14.53;13.30;;;24.60;94.70;;;;;;4952602;29;20488;-74
2022/10/07 09:14:02;;;;;;;14.60;13.80;;;23.70;95.70;;;;;;4952684;29;20463;-74
2022/10/07 09:16:34;;;;;;;14.50;13.50;;;22.90;97.70;;;;;;4953130;29;20453;-73
2022/10/07 09:19:02;;;;;;;15.27;14.07;;;23.20;97.70;;;;;;4953154;29;20444;-74
2022/10/07 09:21:41;;;;;;;14.27;13.10;;;23.20;97.40;;;;;;4952996;29;20958;-74
2022/10/07 09:24:17;;;;;;;14.30;13.33;;;23.30;96.80;;;;;;4952538;29;20822;-75
2022/10/07 09:26:44;;;;;;;15.03;13.97;;;22.90;97.50;;;;;;4952502;29;20458;-75
2022/10/07 09:29:11;;;;;;;14.40;13.57;;;22.60;98.40;;;;;;4952487;29;20657;-75
2022/10/07 09:31:39;;;;;;;14.60;13.90;;;22.70;98.40;;;;;;4952616;29;20500;-74
2022/10/07 09:34:12;;;;;;;15.50;14.60;;;22.90;98.00;;;;;;4952464;29;20959;-75
2022/10/07 09:37:10;;;;;;;16.67;15.50;;;23.20;97.70;;;;;;4952582;29;20564;-76
2022/10/07 09:39:37;;;;;;;14.67;14.07;;;24.10;96.40;;;;;;4952777;29;20573;-74
2022/10/07 09:42:07;;;;;;;15.20;14.20;;;24.10;95.90;;;;;;4966389;28;20443;-75
2022/10/07 09:44:34;;;;;;;16.27;15.10;;;23.90;96.10;;;;;;4971893;28;20467;-75
2022/10/07 09:47:17;;;;;;;16.13;15.13;;;24.00;96.10;;;;;;4971928;28;20498;-75
2022/10/07 09:49:45;;;;;;;15.63;14.77;;;24.10;96.20;;;;;;4971509;28;20464;-75
2022/10/07 09:52:18;;;;;;;15.60;14.70;;;24.70;95.20;;;;;;4971683;28;20494;-76
2022/10/07 09:54:46;;;;;;;15.70;14.80;;;25.40;93.90;;;;;;4971372;28;20546;-75
2022/10/07 09:57:29;;;;;;;16.93;15.80;;;25.50;93.80;;;;;;4971461;28;20456;-75
2022/10/07 10:00:21;;;;;;;16.13;15.00;;;25.50;94.00;;;;;;4971610;28;20860;-75
2022/10/07 10:02:52;;;;;;;17.13;16.13;;;26.30;92.60;;;;;;4971519;28;20937;-75
2022/10/07 10:05:24;;;;;;;17.80;16.80;;;27.30;90.40;;;;;;4971329;28;20840;-75
2022/10/07 10:07:56;;;;;;;17.80;16.80;;;26.40;91.40;;;;;;4971188;28;20456;-74
2022/10/07 10:10:25;;;;;;;18.40;17.00;;;25.40;92.70;;;;;;4970896;28;20509;-75
2022/10/07 10:12:54;;;;;;;16.00;15.17;;;24.70;94.50;;;;;;4970868;28;20496;-74
2022/10/07 10:15:27;;;;;;;17.90;16.80;;;24.60;94.30;;;;;;4971006;28;20466;-74
2022/10/07 10:17:56;;;;;;;17.27;16.17;;;23.90;95.20;;;;;;4971117;28;20660;-74
2022/10/07 10:20:30;;;;;;;17.10;16.20;;;23.50;96.60;;;;;;4970962;28;20918;-75
2022/10/07 10:22:57;;;;;;;18.27;17.20;;;23.40;97.10;;;;;;4970832;28;20463;-75
2022/10/07 10:28:34;;;;;;;17.50;16.50;;;23.90;96.60;;;;;;4970938;28;20483;-75
2022/10/07 10:31:09;;;;;;;18.13;17.03;;;24.10;96.30;;;;;;4970983;28;20491;-74
2022/10/07 10:33:42;;;;;;;17.70;16.60;;;24.00;96.20;;;;;;4970811;28;20465;-76
2022/10/07 10:36:15;;;;;;;17.97;16.97;;;23.90;96.60;;;;;;4970998;28;20518;-73
2022/10/07 10:38:49;;;;;;;17.43;16.43;;;24.00;96.20;;;;;;4970665;28;20452;-73
2022/10/07 10:41:27;;;;;;;17.87;16.47;;;23.70;96.60;;;;;;4963661;28;20456;-74
2022/10/07 10:44:18;;;;;;;18.20;17.03;;;23.70;96.90;;;;;;4951360;29;20456;-75
2022/10/07 10:46:53;;;;;;;18.40;17.10;;;24.30;96.10;;;;;;4948891;28;20495;-74
2022/10/07 10:49:28;;;;;;;16.50;15.70;;;24.80;94.80;;;;;;4951423;29;20575;-74
2022/10/07 10:52:16;;;;;;;17.53;16.20;;;24.50;95.30;;;;;;4951546;29;20515;-75
2022/10/07 10:54:54;;;;;;;17.87;16.57;;;24.70;95.40;;;;;;4951218;29;20527;-74
2022/10/07 10:57:32;;;;;;;17.43;16.53;;;25.00;94.40;;;;;;4950914;29;20464;-74
2022/10/07 11:00:09;;;;;;;17.90;16.93;;;25.10;94.20;;;;;;4951112;29;20980;-73
2022/10/07 11:03:22;;;;;;;19.63;18.50;;;24.20;95.50;;;;;;4951170;29;20813;-74
2022/10/07 11:05:51;;;;;;;18.70;17.50;;;24.70;95.20;;;;;;4943721;28;20461;-74
2022/10/07 11:08:21;;;;;;;17.07;16.17;;;24.40;95.80;;;;;;4951035;29;20950;-73
2022/10/07 11:10:53;;;;;;;18.93;17.80;;;24.10;96.20;;;;;;4950818;29;20494;-74
2022/10/07 11:13:27;;;;;;;19.27;17.50;;;23.90;96.30;;;;;;4951052;29;20463;-74
2022/10/07 11:16:00;;;;;;;17.77;16.80;;;23.60;97.30;;;;;;4950851;29;20451;-74
2022/10/07 11:18:34;;;;;;;17.67;16.67;;;23.50;97.60;;;;;;4950894;29;20539;-74
2022/10/07 11:21:07;;;;;;;18.13;17.00;;;23.60;97.20;;;;;;4951238;29;20456;-73
2022/10/07 11:23:42;;;;;;;17.33;16.30;;;23.60;97.40;;;;;;4951143;29;20931;-73
2022/10/07 11:26:18;;;;;;;18.30;17.13;;;23.50;97.60;;;;;;4950830;29;20447;-73
2022/10/07 11:28:46;;;;;;;19.00;17.77;;;23.20;98.10;;;;;;4950923;29;20452;-74
2022/10/07 11:31:19;;;;;;;17.83;16.70;;;23.20;98.50;;;;;;4950727;29;20579;-75
2022/10/07 11:33:52;;;;;;;20.27;18.77;;;23.30;98.30;;;;;;4951039;29;20480;-73
2022/10/07 11:36:27;;;;;;;19.30;18.00;;;23.30;98.50;;;;;;4950981;29;20452;-73
2022/10/07 11:38:54;;;;;;;19.33;18.03;;;23.40;98.40;;;;;;4950663;29;20518;-73
2022/10/07 11:41:28;;;;;;;20.63;18.60;;;23.90;97.60;;;;;;4958206;28;20467;-73
2022/10/07 11:43:58;;;;;;;17.40;16.27;;;24.10;97.10;;;;;;4969725;28;20858;-74
2022/10/07 11:46:28;;;;;;;18.00;17.00;;;24.20;96.90;;;;;;4969598;28;20458;-74
2022/10/07 11:49:00;;;;;;;17.57;16.63;;;24.40;96.40;;;;;;4969853;28;20969;-74
2022/10/07 11:51:33;;;;;;;18.30;17.30;;;24.50;96.30;;;;;;4969680;28;20495;-75
2022/10/07 11:54:03;;;;;;;20.50;19.00;;;24.80;96.10;;;;;;4970149;28;20846;-74
2022/10/07 11:56:35;;;;;;;18.50;17.27;;;24.80;95.50;;;;;;4970045;28;20973;-74
2022/10/07 11:59:04;;;;;;;19.20;18.10;;;24.70;96.10;;;;;;4970140;28;20455;-74
2022/10/07 12:01:53;;;;;;;16.70;15.50;;;25.20;95.30;;;;;;4970139;28;20452;-74
2022/10/07 12:04:40;;;;;;;17.00;16.00;;;25.70;94.60;;;;;;4969796;28;20510;-73
2022/10/07 12:07:40;;;;;;;18.27;17.27;;;25.80;93.60;;;;;;4966511;28;20456;-74
2022/10/07 12:10:29;;;;;;;18.13;17.03;;;25.50;94.00;;;;;;4969830;28;20890;-74
2022/10/07 12:12:59;;;;;;;17.07;15.80;;;25.20;94.70;;;;;;4963832;28;21047;-73
2022/10/07 12:15:35;;;;;;;18.83;17.77;;;25.50;94.60;;;;;;4969449;28;20466;-73
2022/10/07 12:18:27;;;;;;;17.97;16.97;;;25.50;94.40;;;;;;4969836;28;20937;-73
2022/10/07 12:21:05;;;;;;;16.77;15.77;;;25.70;93.50;;;;;;4969695;28;20447;-75
2022/10/07 12:24:04;;;;;;;17.00;16.00;;;25.60;94.20;;;;;;4973610;28;20447;-74
2022/10/07 12:26:45;;;;;;;17.03;16.13;;;25.50;94.30;;;;;;4972764;28;20439;-74
2022/10/07 12:29:47;;;;;;;18.63;17.10;;;25.70;93.40;;;;;;4973148;28;20811;-75
2022/10/07 12:32:45;;;;;;;17.77;16.77;;;25.00;94.90;;;;;;4969634;28;20636;-74
2022/10/07 12:35:40;;;;;;;17.47;16.13;;;24.70;95.30;;;;;;4973029;28;20458;-73
2022/10/07 12:38:18;;;;;;;15.70;14.93;;;24.80;95.10;;;;;;4972636;28;20478;-75
2022/10/07 12:40:49;;;;;;;17.73;16.87;;;24.30;96.50;;;;;;4969626;28;20783;-74
2022/10/07 12:43:27;;;;;;;16.33;15.43;;;24.50;96.30;;;;;;4953821;29;20456;-75
2022/10/07 12:45:54;;;;;;;16.70;15.90;;;24.30;96.20;;;;;;4953386;29;21210;-75
2022/10/07 12:48:23;;;;;;;17.20;16.20;;;24.30;96.50;;;;;;4953408;29;20457;-74
2022/10/07 12:50:53;;;;;;;17.70;16.33;;;24.00;96.60;;;;;;4953355;29;20467;-75
2022/10/07 12:53:25;;;;;;;17.20;16.27;;;23.70;97.40;;;;;;4953085;29;20487;-73
2022/10/07 12:55:55;;;;;;;16.03;15.13;;;23.80;97.60;;;;;;4953126;29;20452;-75
2022/10/07 13:01:54;;;;;;;16.80;15.57;;;24.40;96.80;;;;;;4953041;29;20463;-75
2022/10/07 13:04:42;;;;;;;16.97;15.87;;;24.10;96.40;;;;;;4953541;29;20464;-73
2022/10/07 13:07:42;;;;;;;18.97;17.60;;;23.30;98.00;;;;;;4953196;29;20664;-73
2022/10/07 13:10:54;;;;;;;16.70;15.60;;;22.90;98.80;;;;;;4952882;29;20655;-74
2022/10/07 13:13:30;;;;;;;17.33;16.23;;;22.60;99.70;;;;;;4952649;29;20452;-73
2022/10/07 13:16:02;;;;;;;17.70;16.50;;;22.40;99.90;;;;;;4953050;29;20456;-75
2022/10/07 13:18:39;;;;;;;17.00;16.00;;;22.30;99.90;;;;;;4952815;29;20449;-73
2022/10/07 13:21:16;;;;;;;17.57;16.47;;;22.50;99.90;;;;;;4953114;29;20938;-74
2022/10/07 13:23:51;;;;;;;17.87;16.83;;;22.30;99.90;;;;;;4952841;29;20448;-74
2022/10/07 13:26:20;;;;;;;16.90;15.90;;;22.50;99.90;;;;;;4953018;29;20498;-74
2022/10/07 13:28:51;;;;;;;17.57;16.57;;;22.60;99.90;;;;;;4953047;29;20449;-76
2022/10/07 13:31:20;;;;;;;15.83;15.03;;;22.10;99.90;;;;;;4953043;29;20449;-76
2022/10/07 13:33:48;;;;;;;17.93;16.73;;;21.70;99.90;;;;;;4952705;28;20459;-74
2022/10/07 13:36:18;;;;;;;17.33;16.17;;;21.30;99.90;;;;;;4952584;29;20460;-74
2022/10/07 13:38:46;;;;;;;16.53;15.73;;;21.20;99.90;;;;;;4951150;28;20452;-74
2022/10/07 13:41:25;;;;;;;15.47;14.67;;;20.90;99.90;;;;;;4951552;28;20947;-74
2022/10/07 13:43:56;;;;;;;17.60;16.40;;;20.80;99.90;;;;;;4952114;29;20462;-75
2022/10/07 13:46:24;;;;;;;17.10;16.10;;;20.60;99.90;;;;;;4952258;29;20464;-74
2022/10/07 13:48:53;;;;;;;17.97;16.87;;;20.60;99.90;;;;;;4952182;29;20460;-74
2022/10/07 13:51:28;;;;;;;17.13;15.90;;;20.70;99.90;;;;;;4952149;29;20452;-75
2022/10/07 13:53:58;;;;;;;18.10;17.07;;;20.40;99.90;;;;;;4951878;29;20490;-75
2022/10/07 13:56:27;;;;;;;16.70;15.70;;;20.30;99.90;;;;;;4952185;29;20460;-73
2022/10/07 13:58:57;;;;;;;16.73;15.83;;;20.40;99.90;;;;;;4952293;29;20456;-73
2022/10/07 14:01:26;;;;;;;17.07;15.93;;;20.40;99.90;;;;;;4952016;29;20461;-76
2022/10/07 14:04:08;;;;;;;16.47;15.50;;;20.50;99.90;;;;;;4951897;29;20515;-75
2022/10/07 14:06:40;;;;;;;17.40;16.50;;;20.50;99.90;;;;;;4952013;29;20464;-75
2022/10/07 14:09:17;;;;;;;16.73;15.70;;;20.40;99.90;;;;;;4951771;29;20472;-74
2022/10/07 14:11:44;;;;;;;16.23;15.13;;;20.20;99.90;;;;;;4951860;29;20484;-75
2022/10/07 14:14:20;;;;;;;17.70;16.30;;;20.10;99.90;;;;;;4952049;29;20804;-75
2022/10/07 14:16:51;;;;;;;16.23;15.23;;;20.10;99.90;;;;;;4951955;29;20456;-75
2022/10/07 14:19:20;;;;;;;16.10;15.20;;;20.10;99.90;;;;;;4932888;28;20475;-75
2022/10/07 14:21:46;;;;;;;16.40;15.60;;;20.10;99.90;;;;;;4914026;29;20455;-74
2022/10/07 14:24:19;;;;;;;16.73;15.53;;;20.20;99.90;;;;;;4913749;29;20454;-74
2022/10/07 14:26:46;;;;;;;16.00;14.83;;;20.20;99.90;;;;;;4913965;29;20454;-74
2022/10/07 14:29:36;;;;;;;17.70;16.23;;;20.20;99.90;;;;;;4913519;29;20454;-74
2022/10/07 14:35:19;;;;;;;15.93;15.03;;;20.10;99.90;;;;;;4897083;29;20450;-74
2022/10/07 14:37:46;;;;;;;15.70;14.80;;;20.20;99.90;;;;;;4894902;29;20458;-75
2022/10/07 14:40:18;;;;;;;16.20;15.40;;;20.10;99.90;;;;;;4894202;29;20455;-75
2022/10/07 14:42:45;;;;;;;17.33;16.43;;;20.20;99.90;;;;;;4913079;29;20522;-76
2022/10/07 14:45:17;;;;;;;16.30;15.40;;;20.10;99.90;;;;;;4912557;29;20972;-75
2022/10/07 14:47:44;;;;;;;16.60;15.80;;;20.10;99.90;;;;;;4913124;29;20860;-74
2022/10/07 14:50:12;;;;;;;17.93;16.93;;;20.10;99.90;;;;;;4913154;29;20484;-75
2022/10/07 14:52:42;;;;;;;17.10;16.20;;;20.00;99.90;;;;;;4913187;29;20502;-73
2022/10/07 14:55:14;;;;;;;18.20;17.10;;;19.90;99.90;;;;;;4912998;29;20839;-75
2022/10/07 14:57:41;;;;;;;16.77;15.93;;;19.90;99.90;;;;;;4913301;29;20975;-75
2022/10/07 15:00:13;;;;;;;17.00;16.20;;;19.80;99.90;;;;;;4913323;29;20486;-76
2022/10/07 15:02:41;;;;;;;17.80;16.70;;;19.70;99.90;;;;;;4913249;29;20454;-74
2022/10/07 15:05:09;;;;;;;17.93;16.80;;;19.80;99.90;;;;;;4913443;29;20533;-74
2022/10/07 15:07:36;;;;;;;18.50;17.07;;;19.80;99.90;;;;;;4913210;29;20923;-75
2022/10/07 15:10:04;;;;;;;17.43;16.33;;;19.80;99.90;;;;;;4913404;29;20816;-75
2022/10/07 15:12:32;;;;;;;17.00;16.20;;;19.80;99.90;;;;;;4913187;29;21090;-75
2022/10/07 15:14:58;;;;;;;17.20;16.30;;;19.80;99.90;;;;;;4913115;29;20462;-74
2022/10/07 15:17:25;;;;;;;17.13;16.23;;;19.70;99.90;;;;;;4912632;29;20470;-73
2022/10/07 15:19:53;;;;;;;17.37;16.37;;;19.60;99.90;;;;;;4912728;29;20461;-74
2022/10/07 15:22:20;;;;;;;17.90;16.60;;;19.50;99.90;;;;;;4913196;29;20465;-74
2022/10/07 15:24:47;;;;;;;18.93;17.57;;;19.50;99.90;;;;;;4913731;29;20454;-75
2022/10/07 15:27:17;;;;;;;19.07;17.40;;;19.50;99.90;;;;;;4913051;29;20454;-75
2022/10/07 15:29:44;;;;;;;17.17;16.23;;;19.40;99.90;;;;;;4913204;29;20923;-74
2022/10/07 15:32:11;;;;;;;17.67;16.67;;;19.40;99.90;;;;;;4912878;29;20830;-74
2022/10/07 15:34:38;;;;;;;17.50;16.40;;;19.40;99.90;;;;;;4912401;29;20462;-74
2022/10/07 15:37:08;;;;;;;16.67;15.63;;;19.40;99.90;;;;;;4913140;29;20465;-74
2022/10/07 15:39:34;;;;;;;17.73;16.73;;;19.40;99.90;;;;;;4912698;29;20464;-73
2022/10/07 15:42:01;;;;;;;16.80;15.90;;;19.30;99.90;;;;;;4899727;29;20467;-75
2022/10/07 15:44:28;;;;;;;16.40;15.50;;;19.30;99.90;;;;;;4893621;29;20459;-75
2022/10/07 15:46:56;;;;;;;16.90;15.90;;;19.20;99.90;;;;;;4893580;29;21000;-76
2022/10/07 15:49:22;;;;;;;16.80;15.77;;;19.20;99.90;;;;;;4893498;29;20469;-74
2022/10/07 15:51:49;;;;;;;16.43;15.40;;;19.20;99.90;;;;;;4893668;29;20462;-74
2022/10/07 15:54:19;;;;;;;17.47;16.57;;;19.20;99.90;;;;;;4893586;29;20581;-75
2022/10/07 15:56:48;;;;;;;14.30;13.57;;;19.20;99.90;;;;;;4896825;29;20481;-74
2022/10/07 15:59:15;;;;;;;17.43;16.43;;;19.00;99.90;;;;;;4897281;29;20461;-75
2022/10/07 16:01:43;;;;;;;17.03;16.10;;;19.00;99.90;;;;;;4897138;29;20873;-74
2022/10/07 16:04:12;;;;;;;18.73;16.77;;;18.90;99.90;;;;;;4897162;29;20455;-74
2022/10/07 16:06:39;;;;;;;18.37;17.37;;;19.00;99.90;;;;;;4897045;29;20618;-74
2022/10/07 16:09:06;;;;;;;17.67;16.67;;;18.90;99.90;;;;;;4897511;29;20491;-75
2022/10/07 16:11:34;;;;;;;17.60;16.40;;;18.90;99.90;;;;;;4897298;29;20462;-75
2022/10/07 16:14:02;;;;;;;17.10;16.10;;;18.90;99.90;;;;;;4897220;29;20490;-75
2022/10/07 16:16:31;;;;;;;18.47;16.90;;;18.90;99.90;;;;;;4896727;29;20447;-74
2022/10/07 16:18:59;;;;;;;18.33;17.20;;;18.80;99.90;;;;;;4897125;29;20455;-74
2022/10/07 16:21:28;;;;;;;16.37;15.30;;;18.80;99.90;;;;;;4896941;29;20702;-75
2022/10/07 16:23:57;;;;;;;18.43;17.30;;;18.80;99.90;;;;;;4896829;29;20455;-74
2022/10/07 16:26:28;;;;;;;18.63;17.63;;;18.80;99.90;;;;;;4896803;29;20455;-75
2022/10/07 16:31:44;;;;;;;18.50;17.20;;;18.70;99.90;;;;;;4896732;29;20438;-75
2022/10/07 16:34:13;;;;;;;19.87;18.50;;;18.60;99.90;;;;;;4896566;29;20491;-74
2022/10/07 16:36:40;;;;;;;18.50;17.50;;;18.60;99.90;;;;;;4896776;29;20471;-75
2022/10/07 16:39:08;;;;;;;18.60;17.40;;;18.50;99.90;;;;;;4897057;29;20486;-75
2022/10/07 16:41:36;;;;;;;17.30;16.10;;;18.50;99.90;;;;;;4906174;29;20454;-76
2022/10/07 16:44:05;;;;;;;18.10;17.17;;;18.40;99.90;;;;;;4915800;29;20461;-75
2022/10/07 16:46:32;;;;;;;17.27;16.30;;;18.30;99.90;;;;;;4916257;29;20549;-75
2022/10/07 16:48:59;;;;;;;20.30;19.00;;;18.30;99.90;;;;;;4915701;29;20459;-75
2022/10/07 16:51:28;;;;;;;20.67;19.00;;;18.00;99.90;;;;;;4915514;29;20469;-75
2022/10/07 16:53:59;;;;;;;19.93;18.63;;;17.90;99.90;;;;;;4915230;29;20495;-75
2022/10/07 16:56:25;;;;;;;20.13;18.90;;;17.80;99.90;;;;;;4915559;29;20798;-75
2022/10/07 16:58:56;;;;;;;19.60;18.30;;;17.80;99.90;;;;;;4915074;29;20825;-75
2022/10/07 17:01:26;;;;;;;19.90;18.70;;;17.80;99.90;;;;;;4914779;29;20458;-76
2022/10/07 17:03:53;;;;;;;19.20;18.10;;;17.70;99.90;;;;;;4914847;29;20458;-75
2022/10/07 17:06:22;;;;;;;19.93;18.67;;;17.70;99.90;;;;;;4915428;29;20493;-73
2022/10/07 17:08:49;;;;;;;19.40;18.00;;;17.60;99.90;;;;;;4914772;29;20481;-74
2022/10/07 17:11:28;;;;;;;19.60;18.37;;;17.50;99.90;;;;;;4915267;29;20450;-74
2022/10/07 17:13:56;;;;;;;19.63;18.60;;;17.50;99.90;;;;;;4915100;29;21055;-75
2022/10/07 17:16:25;;;;;;;19.90;18.90;;;17.40;99.90;;;;;;4915162;29;20949;-74
2022/10/07 17:18:52;;;;;;;19.17;18.17;;;17.40;99.90;;;;;;4915274;29;20864;-75
2022/10/07 17:21:19;;;;;;;18.40;17.40;;;17.30;99.90;;;;;;4914906;29;20454;-74
2022/10/07 17:23:46;;;;;;;19.30;18.00;;;17.30;99.90;;;;;;4914772;29;20763;-74
2022/10/07 17:26:13;;;;;;;19.87;18.77;;;17.20;99.90;;;;;;4914862;29;20557;-75
2022/10/07 17:28:40;;;;;;;19.83;18.83;;;17.20;99.90;;;;;;4915028;29;20623;-76
2022/10/07 17:31:07;;;;;;;20.70;19.50;;;17.20;99.90;;;;;;4914816;29;20960;-74
2022/10/07 17:33:38;;;;;;;20.90;19.40;;;17.20;99.90;;;;;;4914868;29;20496;-75
2022/10/07 17:36:07;;;;;;;20.13;18.73;;;17.20;99.90;;;;;;4914676;29;20455;-75
2022/10/07 17:38:37;;;;;;;21.83;19.97;;;17.10;99.90;;;;;;4915078;29;20546;-75
2022/10/07 17:41:10;;;;;;;22.47;20.77;;;17.00;99.90;;;;;;4909394;29;20447;-74
2022/10/07 17:43:37;;;;;;;21.00;19.80;;;16.90;99.90;;;;;;4895405;29;20965;-75
2022/10/07 17:46:04;;;;;;;20.03;18.93;;;16.90;99.90;;;;;;4896361;29;20554;-74
2022/10/07 17:48:31;;;;;;;22.60;20.70;;;16.90;99.90;;;;;;4895623;29;20462;-74
2022/10/07 17:51:03;;;;;;;20.23;19.03;;;16.80;99.90;;;;;;4895440;29;20466;-74
2022/10/07 17:53:31;;;;;;;21.50;20.30;;;16.80;99.90;;;;;;4895491;29;20495;-75
2022/10/07 17:55:58;;;;;;;20.13;18.93;;;16.80;99.90;;;;;;4895266;29;20463;-75